Time;durP1;ratioP1;P1;durP2;ratioP2;P2;SDS_P1;SDS_P2;PMS_P1;PMS_P2;Temp;Humidity;BMP_temperature;BMP_pressure;BME280_temperature;BME280_humidity;BME280_pressure;Samples;Min_cycle;Max_cycle;Signal;HPM_P1;HPM_P2
2022/07/02 00:02:13;;;;;;;15.57;9.40;;;;;;;-147.27;100.00;65176.34;4977511;28;20054;-49
2022/07/02 00:04:58;;;;;;;17.37;9.43;;;;;;;-147.27;100.00;65176.34;4976455;28;20037;-49
2022/07/02 00:07:25;;;;;;;17.93;9.80;;;;;;;-147.27;100.00;65176.34;4973998;28;20281;-48
2022/07/02 00:09:53;;;;;;;18.67;10.50;;;;;;;-147.27;100.00;65176.34;4978020;28;20277;-48
2022/07/02 00:12:19;;;;;;;18.53;9.90;;;;;;;-147.27;100.00;65176.34;4973575;28;20272;-53
2022/07/02 00:14:50;;;;;;;14.88;10.32;;;;;;;-147.27;100.00;65176.34;4976249;28;20285;-51
2022/07/02 00:17:15;;;;;;;19.37;10.80;;;;;;;-147.27;100.00;65176.34;4978184;28;20046;-49
2022/07/02 00:19:42;;;;;;;17.77;9.43;;;;;;;-147.27;100.00;65176.34;4978011;28;20364;-51
2022/07/02 00:22:08;;;;;;;19.20;9.45;;;;;;;-147.27;100.00;65176.34;4978086;28;20035;-48
2022/07/02 00:24:39;;;;;;;18.60;9.15;;;;;;;-147.27;100.00;65176.34;4976533;28;20111;-50
2022/07/02 00:27:08;;;;;;;12.87;8.60;;;;;;;-147.27;100.00;65176.34;4977111;28;20031;-49
2022/07/02 00:29:54;;;;;;;10.87;8.20;;;;;;;-147.27;100.00;65176.34;4971585;28;20519;-53
2022/07/02 00:32:20;;;;;;;13.17;8.60;;;;;;;-147.27;100.00;65176.34;4961627;28;20273;-51
2022/07/02 00:34:46;;;;;;;14.85;9.55;;;;;;;-147.27;100.00;65176.34;4975280;28;20356;-49
2022/07/02 00:37:16;;;;;;;15.20;8.43;;;;;;;-147.27;100.00;65176.34;4976254;28;20102;-51
2022/07/02 00:39:41;;;;;;;17.97;9.30;;;;;;;-147.27;100.00;65176.34;4973899;28;20352;-53
2022/07/02 00:42:09;;;;;;;15.33;9.20;;;;;;;-147.27;100.00;65176.34;4974071;28;20327;-52
2022/07/02 00:44:35;;;;;;;20.23;8.73;;;;;;;-147.27;100.00;65176.34;4972189;28;20257;-53
2022/07/02 00:47:07;;;;;;;16.25;8.93;;;;;;;-147.27;100.00;65176.34;4974119;28;20308;-50
2022/07/02 00:49:34;;;;;;;19.57;9.20;;;;;;;-147.27;100.00;65176.34;4975368;28;20042;-49
2022/07/02 00:52:01;;;;;;;15.07;7.53;;;;;;;-147.27;100.00;65176.34;4978373;28;20265;-49
2022/07/02 00:54:27;;;;;;;17.40;8.33;;;;;;;-147.27;100.00;65176.34;4975520;28;20312;-49
2022/07/02 00:56:54;;;;;;;19.77;8.45;;;;;;;-147.27;100.00;65176.34;4974252;28;20304;-53
2022/07/02 00:59:23;;;;;;;12.98;7.93;;;;;;;-147.27;100.00;65176.34;4976194;28;20061;-50
2022/07/02 01:01:49;;;;;;;14.23;8.07;;;;;;;-147.27;100.00;65176.34;4976128;28;20027;-49
2022/07/02 01:04:16;;;;;;;17.83;7.43;;;;;;;-147.27;100.00;65176.34;4961576;28;20281;-51
2022/07/02 01:06:42;;;;;;;11.18;6.88;;;;;;;-147.27;100.00;65176.34;4986373;28;20112;-53
2022/07/02 01:11:59;;;;;;;14.07;7.10;;;;;;;-147.27;100.00;65176.34;4972797;28;20262;-49
2022/07/02 01:14:25;;;;;;;13.53;7.37;;;;;;;-147.27;100.00;65176.34;4969956;29;20300;-53
2022/07/02 01:16:51;;;;;;;14.77;7.73;;;;;;;-147.27;100.00;65176.34;4975992;28;20272;-55
2022/07/02 01:19:18;;;;;;;10.48;6.97;;;;;;;-147.27;100.00;65176.34;4980392;28;20277;-52
2022/07/02 01:22:09;;;;;;;11.00;7.27;;;;;;;-147.27;100.00;65176.34;4982605;28;20031;-54
2022/07/02 01:24:34;;;;;;;15.73;7.60;;;;;;;-147.27;100.00;65176.34;4980414;28;20280;-48
2022/07/02 01:27:00;;;;;;;14.55;7.75;;;;;;;-147.27;100.00;65176.34;4977488;28;20311;-51
2022/07/02 01:29:25;;;;;;;15.33;7.80;;;;;;;-147.27;100.00;65176.34;4976681;28;20054;-48
2022/07/02 01:31:51;;;;;;;13.83;6.50;;;;;;;-147.27;100.00;65176.34;4978339;28;20043;-50
2022/07/02 01:34:16;;;;;;;9.48;5.82;;;;;;;-147.27;100.00;65176.34;4980715;28;20043;-52
2022/07/02 01:36:42;;;;;;;11.87;6.80;;;;;;;-147.27;100.00;65176.34;4980023;28;20047;-52
2022/07/02 01:39:07;;;;;;;13.80;6.80;;;;;;;-147.27;100.00;65176.34;4978472;28;20073;-52
2022/07/02 01:41:41;;;;;;;10.97;6.80;;;;;;;-147.27;100.00;65176.34;4977423;28;20046;-51
2022/07/02 01:44:08;;;;;;;11.03;6.73;;;;;;;-147.27;100.00;65176.34;4981154;28;20031;-50
2022/07/02 01:46:35;;;;;;;11.17;6.57;;;;;;;-147.27;100.00;65176.34;4977998;28;20280;-53
2022/07/02 01:49:02;;;;;;;10.03;6.63;;;;;;;-147.27;100.00;65176.34;4978100;28;20270;-53
2022/07/02 01:51:27;;;;;;;15.55;6.78;;;;;;;-147.27;100.00;65176.34;4976502;28;20301;-52
2022/07/02 01:53:53;;;;;;;12.57;6.93;;;;;;;-147.27;100.00;65176.34;4975875;28;20043;-50
2022/07/02 01:56:18;;;;;;;14.37;6.50;;;;;;;-147.27;100.00;65176.34;4981058;28;20284;-48
2022/07/02 01:58:44;;;;;;;16.10;6.93;;;;;;;-147.27;100.00;65176.34;4980989;28;20049;-49
2022/07/02 02:01:10;;;;;;;11.18;5.80;;;;;;;-147.27;100.00;65176.34;4980595;28;20802;-50
2022/07/02 02:03:36;;;;;;;10.38;4.75;;;;;;;-147.27;100.00;65176.34;4979020;28;20122;-48
2022/07/02 02:06:02;;;;;;;13.27;5.80;;;;;;;-147.27;100.00;65176.34;4979030;28;20030;-50
2022/07/02 02:08:28;;;;;;;12.73;5.80;;;;;;;-147.27;100.00;65176.34;4979399;28;20042;-53
2022/07/02 02:10:53;;;;;;;10.57;5.63;;;;;;;-147.27;100.00;65176.34;4982775;28;20027;-54
2022/07/02 02:13:19;;;;;;;11.80;5.63;;;;;;;-147.27;100.00;65176.34;4983641;28;20050;-51
2022/07/02 02:15:44;;;;;;;20.13;5.85;;;;;;;-147.27;100.00;65176.34;4980984;28;20118;-51
2022/07/02 02:18:10;;;;;;;9.43;5.68;;;;;;;-147.27;100.00;65176.34;4978248;28;20137;-51
2022/07/02 02:20:35;;;;;;;12.15;6.15;;;;;;;-147.27;100.00;65176.34;4979243;28;20035;-51
2022/07/02 02:23:04;;;;;;;12.63;6.63;;;;;;;-147.27;100.00;65176.34;4978382;28;20046;-49
2022/07/02 02:25:31;;;;;;;9.57;6.97;;;;;;;-147.27;100.00;65176.34;4978838;28;20046;-52
2022/07/02 02:27:57;;;;;;;12.20;6.60;;;;;;;-147.27;100.00;65176.34;4980222;28;20345;-55
2022/07/02 02:30:23;;;;;;;12.55;6.55;;;;;;;-147.27;100.00;65176.34;4979112;28;20312;-54
2022/07/02 02:32:49;;;;;;;11.82;5.40;;;;;;;-147.27;100.00;65176.34;4982396;28;20049;-54
2022/07/02 02:35:14;;;;;;;11.23;5.30;;;;;;;-147.27;100.00;65176.34;4978894;28;20047;-53
2022/07/02 02:37:41;;;;;;;;;;;;;;;-147.27;100.00;65176.34;4981712;28;20071;-51
2022/07/02 02:40:07;;;;;;;18.37;9.10;;;;;;;-147.27;100.00;65176.34;4983355;28;19938;-54
2022/07/02 02:42:32;;;;;;;28.65;12.57;;;;;;;-147.27;100.00;65176.34;4984457;28;20094;-53
2022/07/02 02:44:58;;;;;;;19.77;9.73;;;;;;;-147.27;100.00;65176.34;4981870;28;20049;-52
2022/07/02 02:47:23;;;;;;;21.98;8.68;;;;;;;-147.27;100.00;65176.34;4985385;28;20285;-53
2022/07/02 02:49:50;;;;;;;17.00;8.60;;;;;;;-147.27;100.00;65176.34;4979703;28;20043;-52
2022/07/02 02:52:15;;;;;;;18.90;8.10;;;;;;;-147.27;100.00;65176.34;4984224;28;20043;-52
2022/07/02 02:54:40;;;;;;;13.27;7.18;;;;;;;-147.27;100.00;65176.34;4982250;28;20094;-54
2022/07/02 02:57:06;;;;;;;14.27;6.80;;;;;;;-147.27;100.00;65176.34;4983507;28;20035;-54
2022/07/02 02:59:31;;;;;;;14.77;6.70;;;;;;;-147.27;100.00;65176.34;4977510;28;20105;-53
2022/07/02 03:01:57;;;;;;;12.18;6.63;;;;;;;-147.27;100.00;65176.34;4976280;28;20059;-53
2022/07/02 03:04:22;;;;;;;9.60;6.50;;;;;;;-147.27;100.00;65176.34;4982083;28;20064;-55
2022/07/02 03:06:48;;;;;;;12.25;6.78;;;;;;;-147.27;100.00;65176.34;4982143;28;20039;-55
2022/07/02 03:09:13;;;;;;;15.48;6.47;;;;;;;-147.27;100.00;65176.34;4978765;28;20119;-52
2022/07/02 03:11:39;;;;;;;13.70;6.77;;;;;;;-147.27;100.00;65176.34;4980063;28;20047;-54
2022/07/02 03:14:05;;;;;;;13.82;5.88;;;;;;;-147.27;100.00;65176.34;4976733;28;20035;-53
2022/07/02 03:16:31;;;;;;;12.13;6.32;;;;;;;-147.27;100.00;65176.34;4980551;28;20042;-53
2022/07/02 03:18:57;;;;;;;14.70;6.57;;;;;;;-147.27;100.00;65176.34;4979073;28;20088;-51
2022/07/02 03:21:23;;;;;;;8.10;5.38;;;;;;;-147.27;100.00;65176.34;4980016;28;20360;-47
2022/07/02 03:23:49;;;;;;;14.52;5.90;;;;;;;-147.27;100.00;65176.34;4979079;28;20042;-53
2022/07/02 03:26:14;;;;;;;10.90;5.93;;;;;;;-147.27;100.00;65176.34;4982859;28;20053;-51
2022/07/02 03:28:40;;;;;;;13.45;6.43;;;;;;;-147.27;100.00;65176.34;4975444;28;20061;-53
2022/07/02 03:31:05;;;;;;;14.95;6.32;;;;;;;-147.27;100.00;65176.34;4980241;28;20044;-54
2022/07/02 03:33:31;;;;;;;12.97;5.87;;;;;;;-147.27;100.00;65176.34;4979095;28;20065;-53
2022/07/02 03:35:56;;;;;;;9.48;4.55;;;;;;;-147.27;100.00;65176.34;4981115;28;20035;-52
2022/07/02 03:38:22;;;;;;;12.47;5.07;;;;;;;-147.27;100.00;65176.34;4984239;28;20035;-53
2022/07/02 03:40:47;;;;;;;14.23;5.82;;;;;;;-147.27;100.00;65176.34;4982371;28;20035;-54
2022/07/02 03:43:13;;;;;;;7.28;4.70;;;;;;;-147.27;100.00;65176.34;4977054;28;20043;-55
2022/07/02 03:45:38;;;;;;;9.87;5.20;;;;;;;-147.27;100.00;65176.34;4978078;28;20042;-52
2022/07/02 03:48:04;;;;;;;7.55;4.72;;;;;;;-147.27;100.00;65176.34;4978119;28;20057;-52
2022/07/02 03:50:29;;;;;;;7.05;4.75;;;;;;;-147.27;100.00;65176.34;4974060;28;20055;-50
2022/07/02 03:52:55;;;;;;;9.13;4.83;;;;;;;-147.27;100.00;65176.34;4978009;28;20041;-53
2022/07/02 03:55:21;;;;;;;10.15;5.68;;;;;;;-147.27;100.00;65176.34;4978359;28;20035;-52
2022/07/02 03:57:47;;;;;;;11.20;5.10;;;;;;;-147.27;100.00;65176.34;4975500;28;20057;-53
2022/07/02 04:00:12;;;;;;;10.52;5.55;;;;;;;-147.27;100.00;65176.34;4977938;28;20122;-51
2022/07/02 04:02:39;;;;;;;10.80;5.70;;;;;;;-147.27;100.00;65176.34;4975644;28;20040;-52
2022/07/02 04:05:05;;;;;;;12.60;6.07;;;;;;;-147.27;100.00;65176.34;4975984;28;20062;-51
2022/07/02 04:07:32;;;;;;;14.37;5.63;;;;;;;-147.27;100.00;65176.34;4976495;28;20273;-52
2022/07/02 04:09:57;;;;;;;10.75;5.22;;;;;;;-147.27;100.00;65176.34;4975652;28;20300;-54
2022/07/02 04:12:22;;;;;;;12.80;5.27;;;;;;;-147.27;100.00;65176.34;4976467;28;20038;-50
2022/07/02 04:14:49;;;;;;;10.18;4.90;;;;;;;-147.27;100.00;65176.34;4972612;28;20046;-51
2022/07/02 04:17:14;;;;;;;9.55;4.78;;;;;;;-147.27;100.00;65176.34;4976319;28;20055;-52
2022/07/02 04:19:40;;;;;;;15.27;6.57;;;;;;;-147.27;100.00;65176.34;4977886;28;20058;-49
2022/07/02 04:22:05;;;;;;;15.05;6.32;;;;;;;-147.27;100.00;65176.34;4977976;28;20090;-53
2022/07/02 04:24:31;;;;;;;9.77;5.55;;;;;;;-147.27;100.00;65176.34;4973279;28;20035;-49
2022/07/02 04:26:57;;;;;;;11.18;5.20;;;;;;;-147.27;100.00;65176.34;4974944;28;20111;-52
2022/07/02 04:29:23;;;;;;;17.50;8.65;;;;;;;-147.27;100.00;65176.34;4975616;28;20039;-52
2022/07/02 04:31:48;;;;;;;15.10;6.20;;;;;;;-147.27;100.00;65176.34;4975025;28;20035;-53
2022/07/02 04:34:14;;;;;;;13.77;5.75;;;;;;;-147.27;100.00;65176.34;4976589;28;20295;-51
2022/07/02 04:36:40;;;;;;;14.80;6.80;;;;;;;-147.27;100.00;65176.34;4977294;28;20035;-50
2022/07/02 04:39:06;;;;;;;17.08;5.75;;;;;;;-147.27;100.00;65176.34;4975917;28;20041;-52
2022/07/02 04:41:32;;;;;;;10.90;4.90;;;;;;;-147.27;100.00;65176.34;4973007;28;20049;-51
2022/07/02 04:43:58;;;;;;;13.25;5.55;;;;;;;-147.27;100.00;65176.34;4979595;28;20273;-52
2022/07/02 04:46:24;;;;;;;15.90;6.00;;;;;;;-147.27;100.00;65176.34;4975362;28;20053;-48
2022/07/02 04:48:50;;;;;;;11.32;4.53;;;;;;;-147.27;100.00;65176.34;4975600;28;20266;-51
2022/07/02 04:51:17;;;;;;;11.05;4.80;;;;;;;-147.27;100.00;65176.34;4975612;28;20041;-52
2022/07/02 04:53:43;;;;;;;9.50;4.67;;;;;;;-147.27;100.00;65176.34;4973967;28;20043;-53
2022/07/02 04:56:09;;;;;;;7.82;4.10;;;;;;;-147.27;100.00;65176.34;4975946;28;20276;-52
2022/07/02 04:58:35;;;;;;;9.43;4.70;;;;;;;-147.27;100.00;65176.34;4973549;28;20039;-49
2022/07/02 05:01:01;;;;;;;8.07;3.60;;;;;;;-147.27;100.00;65176.34;4973868;28;20054;-51
2022/07/02 05:03:26;;;;;;;10.30;4.82;;;;;;;-147.27;100.00;65176.34;4977615;28;20063;-53
2022/07/02 05:05:52;;;;;;;8.87;3.63;;;;;;;-147.27;100.00;65176.34;4976199;28;20044;-52
2022/07/02 05:08:24;;;;;;;9.55;4.53;;;;;;;-147.27;100.00;65176.34;4968825;28;20039;-51
2022/07/02 05:10:49;;;;;;;5.33;3.63;;;;;;;-147.27;100.00;65176.34;4974583;28;20042;-52
2022/07/02 05:13:15;;;;;;;11.90;5.13;;;;;;;-147.27;100.00;65176.34;4970098;28;20293;-53
2022/07/02 05:15:40;;;;;;;8.18;3.67;;;;;;;-147.27;100.00;65176.34;4977465;28;20062;-52
2022/07/02 05:18:06;;;;;;;9.10;3.75;;;;;;;-147.27;100.00;65176.34;4973902;28;20039;-52
2022/07/02 05:20:31;;;;;;;7.00;4.25;;;;;;;-147.27;100.00;65176.34;4979015;28;20042;-48
2022/07/02 05:22:57;;;;;;;9.82;3.78;;;;;;;-147.27;100.00;65176.34;4975518;28;20031;-50
2022/07/02 05:25:22;;;;;;;7.50;3.50;;;;;;;-147.27;100.00;65176.34;4979066;28;20057;-52
2022/07/02 05:27:48;;;;;;;16.33;4.30;;;;;;;-147.27;100.00;65176.34;4977391;28;20042;-49
2022/07/02 05:30:13;;;;;;;9.40;3.70;;;;;;;-147.27;100.00;65176.34;4978974;28;20067;-49
2022/07/02 05:32:39;;;;;;;19.00;3.97;;;;;;;-147.27;100.00;65176.34;4975522;28;20051;-54
2022/07/02 05:35:05;;;;;;;14.35;4.13;;;;;;;-147.27;100.00;65176.34;4978658;28;20055;-50
2022/07/02 05:37:31;;;;;;;10.32;4.15;;;;;;;-147.27;100.00;65176.34;4977216;28;20049;-53
2022/07/02 05:39:56;;;;;;;9.57;3.97;;;;;;;-147.27;100.00;65176.34;4977125;28;20027;-55
2022/07/02 05:42:22;;;;;;;9.25;4.38;;;;;;;-147.27;100.00;65176.34;4975476;28;20035;-50
2022/07/02 05:44:47;;;;;;;7.32;4.13;;;;;;;-147.27;100.00;65176.34;4974677;28;20028;-47
2022/07/02 05:47:13;;;;;;;12.27;4.45;;;;;;;-147.27;100.00;65176.34;4974922;28;20031;-51
2022/07/02 05:49:38;;;;;;;8.97;3.73;;;;;;;-147.27;100.00;65176.34;4977839;28;20057;-53
2022/07/02 05:52:04;;;;;;;9.15;4.55;;;;;;;-147.27;100.00;65176.34;4975651;28;20042;-54
2022/07/02 05:54:29;;;;;;;7.90;4.75;;;;;;;-147.27;100.00;65176.34;4974857;28;20055;-49
2022/07/02 05:56:55;;;;;;;8.10;4.10;;;;;;;-147.27;100.00;65176.34;4976036;28;20035;-50
2022/07/02 05:59:22;;;;;;;8.07;3.63;;;;;;;-147.27;100.00;65176.34;4974351;28;20086;-51
2022/07/02 06:01:48;;;;;;;8.80;3.80;;;;;;;-147.27;100.00;65176.34;4974585;28;20027;-54
2022/07/02 06:04:15;;;;;;;;;;;;;;;-147.27;100.00;65176.34;4980005;28;20854;-50
2022/07/02 06:09:25;;;;;;;12.00;5.83;;;;;;;-147.27;100.00;65176.34;4988295;28;20047;-54
2022/07/02 06:11:55;;;;;;;8.68;5.40;;;;;;;-147.27;100.00;65176.34;4976776;28;20027;-55
2022/07/02 06:14:21;;;;;;;14.70;4.90;;;;;;;-147.27;100.00;65176.34;4979257;28;20031;-53
2022/07/02 06:16:46;;;;;;;12.27;4.97;;;;;;;-147.27;100.00;65176.34;4979823;28;20127;-53
2022/07/02 06:19:13;;;;;;;8.63;4.63;;;;;;;-147.27;100.00;65176.34;4980043;28;20039;-51
2022/07/02 06:21:38;;;;;;;7.50;3.50;;;;;;;-147.27;100.00;65176.34;4977269;28;20126;-49
2022/07/02 06:24:04;;;;;;;11.88;3.92;;;;;;;-147.27;100.00;65176.34;4979882;28;20264;-50
2022/07/02 06:26:30;;;;;;;8.52;3.08;;;;;;;-147.27;100.00;65176.34;4975705;28;20039;-52
2022/07/02 06:28:55;;;;;;;8.05;2.72;;;;;;;-147.27;100.00;65176.34;4981656;28;20111;-51
2022/07/02 06:31:20;;;;;;;7.30;3.70;;;;;;;-147.27;100.00;65176.34;4977185;28;20066;-49
2022/07/02 06:33:46;;;;;;;6.25;3.20;;;;;;;-147.27;100.00;65176.34;4984561;28;20051;-52
2022/07/02 06:36:14;;;;;;;8.30;2.97;;;;;;;-147.27;100.00;65176.34;4979848;28;20054;-56
2022/07/02 06:38:41;;;;;;;7.93;3.67;;;;;;;-147.27;100.00;65176.34;4982510;28;20031;-54
2022/07/02 06:42:18;;;;;;;10.30;4.40;;;;;;;-147.27;100.00;65176.34;4980448;28;20038;-48
2022/07/02 06:43:59;;;;;;;6.93;3.40;;;;;;;-147.27;100.00;65176.34;4980269;28;20034;-53
2022/07/02 06:46:24;;;;;;;10.40;3.20;;;;;;;-147.27;100.00;65176.34;4983112;28;20043;-51
2022/07/02 06:48:50;;;;;;;8.57;2.83;;;;;;;-147.27;100.00;65176.34;4980839;28;20094;-51
2022/07/02 06:51:15;;;;;;;8.43;2.57;;;;;;;-147.27;100.00;65176.34;4975217;28;20039;-55
2022/07/02 06:53:41;;;;;;;5.40;2.07;;;;;;;-147.27;100.00;65176.34;4977327;28;20336;-56
2022/07/02 06:56:07;;;;;;;8.83;1.73;;;;;;;-147.27;100.00;65176.34;4972665;28;20039;-54
2022/07/02 06:58:32;;;;;;;4.65;1.50;;;;;;;-147.27;100.00;65176.34;4975160;28;20054;-53
2022/07/02 07:00:58;;;;;;;7.28;2.08;;;;;;;-147.27;100.00;65176.34;4977876;28;20039;-53
2022/07/02 07:03:24;;;;;;;7.45;1.55;;;;;;;-147.27;100.00;65176.34;4974317;28;20040;-52
2022/07/02 07:05:49;;;;;;;2.92;1.17;;;;;;;-147.27;100.00;65176.34;4967426;28;20031;-51
2022/07/02 07:08:14;;;;;;;6.13;1.13;;;;;;;-147.27;100.00;65176.34;4976899;28;20094;-49
2022/07/02 07:10:40;;;;;;;3.80;1.27;;;;;;;-147.27;100.00;65176.34;4977037;28;20073;-59
2022/07/02 07:13:05;;;;;;;2.90;1.35;;;;;;;-147.27;100.00;65176.34;4973572;28;20057;-54
2022/07/02 07:15:31;;;;;;;2.05;0.90;;;;;;;-147.27;100.00;65176.34;4978365;28;20031;-53
2022/07/02 07:17:57;;;;;;;8.65;1.42;;;;;;;-147.27;100.00;65176.34;4978091;28;20041;-53
2022/07/02 07:20:27;;;;;;;4.47;1.35;;;;;;;-147.27;100.00;65176.34;4971850;28;20043;-52
2022/07/02 07:22:53;;;;;;;6.93;1.33;;;;;;;-147.27;100.00;65176.34;4975792;28;20027;-54
2022/07/02 07:25:18;;;;;;;5.93;1.20;;;;;;;-147.27;100.00;65176.34;4971569;28;20047;-48
2022/07/02 07:27:44;;;;;;;3.45;1.30;;;;;;;-147.27;100.00;65176.34;4969472;28;20074;-50
2022/07/02 07:30:10;;;;;;;3.58;0.93;;;;;;;-147.27;100.00;65176.34;4970359;28;20038;-50
2022/07/02 07:32:36;;;;;;;5.95;1.17;;;;;;;-147.27;100.00;65176.34;4968558;28;20073;-53
2022/07/02 07:35:03;;;;;;;1.58;0.80;;;;;;;-147.27;100.00;65176.34;4970199;28;20043;-49
2022/07/02 07:37:28;;;;;;;1.83;0.70;;;;;;;-147.27;100.00;65176.34;4971702;28;20098;-54
2022/07/02 07:39:54;;;;;;;1.85;0.80;;;;;;;-147.27;100.00;65176.34;4976373;28;20039;-52
2022/07/02 07:42:22;;;;;;;2.78;0.80;;;;;;;-147.27;100.00;65176.34;4980228;28;20062;-50
2022/07/02 07:44:48;;;;;;;5.30;1.00;;;;;;;-147.27;100.00;65176.34;4974033;28;20035;-52
2022/07/02 07:47:13;;;;;;;;;;;;;;;-147.27;100.00;65176.34;4979211;28;20035;-51
2022/07/02 07:49:39;;;;;;;5.80;0.97;;;;;;;-147.27;100.00;65176.34;4980334;28;19914;-51
2022/07/02 07:52:05;;;;;;;2.13;0.90;;;;;;;-147.27;100.00;65176.34;4976065;28;20046;-52
2022/07/02 07:54:30;;;;;;;1.88;0.85;;;;;;;-147.27;100.00;65176.34;4979031;28;20047;-51
2022/07/02 07:56:56;;;;;;;2.77;0.93;;;;;;;-147.27;100.00;65176.34;4971656;28;20049;-53
2022/07/02 07:59:21;;;;;;;3.20;0.80;;;;;;;-147.27;100.00;65176.34;4975057;28;20273;-51
2022/07/02 08:01:47;;;;;;;;;;;;;;;-147.27;100.00;65176.34;4974859;28;20034;-54
2022/07/02 08:04:13;;;;;;;0.60;0.40;;;;;;;-147.27;100.00;65176.34;4976873;28;19991;-48
2022/07/02 08:06:38;;;;;;;2.97;1.00;;;;;;;-147.27;100.00;65176.34;4975582;28;20047;-52
2022/07/02 08:09:04;;;;;;;5.72;1.08;;;;;;;-147.27;100.00;65176.34;4961128;28;20054;-50
2022/07/02 08:11:29;;;;;;;1.03;0.50;;;;;;;-147.27;100.00;65176.34;4975531;28;20050;-55
2022/07/02 08:13:55;;;;;;;4.73;0.80;;;;;;;-147.27;100.00;65176.34;4973310;28;20274;-52
2022/07/02 08:16:21;;;;;;;1.70;0.60;;;;;;;-147.27;100.00;65176.34;4977004;28;20285;-50
2022/07/02 08:18:46;;;;;;;4.25;0.80;;;;;;;-147.27;100.00;65176.34;4968593;28;20040;-49
2022/07/02 08:21:11;;;;;;;1.73;0.63;;;;;;;-147.27;100.00;65176.34;4970284;28;20036;-54
2022/07/02 08:23:37;;;;;;;2.50;0.90;;;;;;;-147.27;100.00;65176.34;4969908;28;20050;-52
2022/07/02 08:26:02;;;;;;;3.17;0.75;;;;;;;-147.27;100.00;65176.34;4977302;28;20283;-53
2022/07/02 08:28:28;;;;;;;2.35;0.70;;;;;;;-147.27;100.00;65176.34;4974310;28;20043;-53
2022/07/02 08:30:54;;;;;;;4.57;1.25;;;;;;;-147.27;100.00;65176.34;4976858;28;20070;-55
2022/07/02 08:33:19;;;;;;;5.65;1.98;;;;;;;-147.27;100.00;65176.34;4979430;28;20074;-52
2022/07/02 08:35:44;;;;;;;7.38;2.40;;;;;;;-147.27;100.00;65176.34;4975108;28;20045;-51
2022/07/02 08:38:10;;;;;;;32.23;16.40;;;;;;;-147.27;100.00;65176.34;4979897;28;20061;-59
2022/07/02 08:40:40;;;;;;;8.80;3.40;;;;;;;-147.27;100.00;65176.34;4975253;28;20273;-61
2022/07/02 08:43:07;;;;;;;30.13;17.67;;;;;;;-147.27;100.00;65176.34;4973116;28;20027;-61
2022/07/02 08:45:33;;;;;;;;;;;;;;;-147.27;100.00;65176.34;4990417;28;20091;-61
2022/07/02 08:48:01;;;;;;;34.80;17.50;;;;;;;-147.27;100.00;65176.34;4972442;28;19915;-61
2022/07/02 08:50:27;;;;;;;3.67;1.60;;;;;;;-147.27;100.00;65176.34;4980871;28;20034;-61
2022/07/02 08:52:52;;;;;;;2.20;1.00;;;;;;;-147.27;100.00;65176.34;4980972;28;20042;-61
2022/07/02 08:55:20;;;;;;;5.20;1.10;;;;;;;-147.27;100.00;65176.34;4975695;28;20050;-62
2022/07/02 08:57:48;;;;;;;377.73;217.50;;;;;;;-147.27;100.00;65176.34;4974207;28;20317;-60
2022/07/02 09:00:16;;;;;;;105.87;51.23;;;;;;;-147.27;100.00;65176.34;4972355;28;20050;-61
2022/07/02 09:02:43;;;;;;;37.83;19.47;;;;;;;-147.27;100.00;65176.34;4978022;28;20055;-60
2022/07/02 09:05:11;;;;;;;31.10;14.43;;;;;;;-147.27;100.00;65176.34;4969746;28;20027;-61
2022/07/02 09:07:38;;;;;;;21.60;10.03;;;;;;;-147.27;100.00;65176.34;4975703;28;20042;-60
2022/07/02 09:10:04;;;;;;;9.77;4.50;;;;;;;-147.27;100.00;65176.34;4971254;28;20036;-60
2022/07/02 09:12:31;;;;;;;3.23;1.50;;;;;;;-147.27;100.00;65176.34;4972937;28;20046;-60
2022/07/02 09:14:57;;;;;;;;;;;;;;;-147.27;100.00;65176.34;4973391;28;20042;-61
2022/07/02 09:17:23;;;;;;;1.73;0.80;;;;;;;-147.27;100.00;65176.34;4972821;28;19918;-60
2022/07/02 09:19:48;;;;;;;7.20;1.63;;;;;;;-147.27;100.00;65176.34;4975663;28;20039;-61
2022/07/02 09:22:14;;;;;;;2.65;1.23;;;;;;;-147.27;100.00;65176.34;4976096;28;20038;-60
2022/07/02 09:24:42;;;;;;;3.08;1.42;;;;;;;-147.27;100.00;65176.34;4974744;28;20034;-60
2022/07/02 09:27:17;;;;;;;5.73;1.20;;;;;;;-147.27;100.00;65176.34;4975206;28;20054;-59
2022/07/02 09:29:52;;;;;;;7.07;1.50;;;;;;;-147.27;100.00;65176.34;4970597;28;20031;-61
2022/07/02 09:32:19;;;;;;;4.93;1.47;;;;;;;-147.27;100.00;65176.34;4976581;28;20036;-61
2022/07/02 09:34:50;;;;;;;5.73;1.67;;;;;;;-147.27;100.00;65176.34;4970419;28;20059;-61
2022/07/02 09:37:18;;;;;;;3.43;1.53;;;;;;;-147.27;100.00;65176.34;4974703;28;20038;-59
2022/07/02 09:39:44;;;;;;;3.40;1.40;;;;;;;-147.27;100.00;65176.34;4977085;28;20045;-61
2022/07/02 09:42:11;;;;;;;25.43;13.33;;;;;;;-147.27;100.00;65176.34;4977453;28;20034;-60
2022/07/02 09:44:46;;;;;;;15.30;6.90;;;;;;;-147.27;100.00;65176.34;4976548;28;20023;-60
2022/07/02 09:47:12;;;;;;;27.70;12.40;;;;;;;-147.27;100.00;65176.34;4981240;28;20149;-60
2022/07/02 09:49:47;;;;;;;13.02;5.20;;;;;;;-147.27;100.00;65176.34;4977862;28;20090;-61
2022/07/02 09:52:15;;;;;;;5.67;2.27;;;;;;;-147.27;100.00;65176.34;4977870;28;20066;-60
2022/07/02 09:54:40;;;;;;;16.40;6.37;;;;;;;-147.27;100.00;65176.34;4980792;28;20035;-60
2022/07/02 09:57:08;;;;;;;;;;;;;;;-147.27;100.00;65176.34;4979866;28;20100;-60
2022/07/02 09:59:38;;;;;;;10.33;4.87;;;;;;;-147.27;100.00;65176.34;4978450;28;19918;-59
2022/07/02 10:02:04;;;;;;;30.40;15.43;;;;;;;-147.27;100.00;65176.34;4975991;28;20027;-59
2022/07/02 10:04:31;;;;;;;;;;;;;;;-147.27;100.00;65176.34;4968589;28;20058;-62
2022/07/02 10:06:58;;;;;;;90.32;36.33;;;;;;;-147.27;100.00;65176.34;4970919;28;19959;-60
2022/07/02 10:09:25;;;;;;;55.92;26.20;;;;;;;-147.27;100.00;65176.34;4968339;28;20589;-59
2022/07/02 10:11:52;;;;;;;51.05;26.60;;;;;;;-147.27;100.00;65176.34;4971947;28;20114;-59
2022/07/02 10:14:21;;;;;;;105.40;52.03;;;;;;;-147.27;100.00;65176.34;4979125;28;20050;-60
2022/07/02 10:16:51;;;;;;;20.90;10.18;;;;;;;-147.27;100.00;65176.34;4977957;28;20039;-60
2022/07/02 10:19:17;;;;;;;21.98;9.98;;;;;;;-147.27;100.00;65176.34;4975499;28;20041;-60
2022/07/02 10:21:43;;;;;;;6.30;1.60;;;;;;;-147.27;100.00;65176.34;4976624;28;20035;-59
2022/07/02 10:24:10;;;;;;;8.70;2.00;;;;;;;-147.27;100.00;65176.34;4979471;28;20042;-60
2022/07/02 10:26:37;;;;;;;5.28;1.20;;;;;;;-147.27;100.00;65176.34;4982059;28;20027;-59
2022/07/02 10:29:02;;;;;;;5.75;1.20;;;;;;;-147.27;100.00;65176.34;4974560;28;20035;-60
2022/07/02 10:31:33;;;;;;;3.50;0.88;;;;;;;-147.27;100.00;65176.34;4973996;28;20046;-61
2022/07/02 10:34:14;;;;;;;5.28;1.38;;;;;;;-147.27;100.00;65176.34;4973051;28;20062;-60
2022/07/02 10:36:39;;;;;;;29.77;14.63;;;;;;;-147.27;100.00;65176.34;4975131;28;20107;-60
2022/07/02 10:39:06;;;;;;;26.17;12.98;;;;;;;-147.27;100.00;65176.34;4971998;28;20035;-60
2022/07/02 10:41:32;;;;;;;12.18;6.45;;;;;;;-147.27;100.00;65176.34;4966086;28;20031;-63
2022/07/02 10:43:58;;;;;;;41.80;22.45;;;;;;;-147.27;100.00;65176.34;4970415;28;20044;-60
2022/07/02 10:46:26;;;;;;;102.18;58.67;;;;;;;-147.27;100.00;65176.34;4980202;28;20043;-61
2022/07/02 10:48:54;;;;;;;13.60;6.53;;;;;;;-147.27;100.00;65176.34;4978351;28;20046;-60
2022/07/02 10:51:32;;;;;;;6.95;1.27;;;;;;;-147.27;100.00;65176.34;4972135;28;20062;-59
2022/07/02 10:54:00;;;;;;;6.30;3.33;;;;;;;-147.27;100.00;65176.34;4975844;28;20053;-60
2022/07/02 10:56:27;;;;;;;4.35;1.00;;;;;;;-147.27;100.00;65176.34;4976925;28;20038;-60
2022/07/02 10:58:53;;;;;;;6.47;2.97;;;;;;;-147.27;100.00;65176.34;4975670;28;20057;-60
2022/07/02 11:01:21;;;;;;;16.60;3.72;;;;;;;-147.27;100.00;65176.34;4966275;28;20054;-61
2022/07/02 11:04:01;;;;;;;5.05;1.20;;;;;;;-147.27;100.00;65176.34;4964468;28;20049;-62
2022/07/02 11:06:28;;;;;;;6.25;1.73;;;;;;;-147.27;100.00;65176.34;4969148;28;20098;-61
2022/07/02 11:08:56;;;;;;;7.80;3.30;;;;;;;-147.27;100.00;65176.34;4974085;28;20039;-61
2022/07/02 11:11:30;;;;;;;15.57;7.72;;;;;;;-147.27;100.00;65176.34;4966683;28;20027;-60